createdAt,value
2022-11-19T00:00:10.712Z,-3.32
2022-11-19T00:05:41.267Z,-3.33
2022-11-19T00:10:47.775Z,-3.36
2022-11-19T00:15:53.675Z,-3.32
2022-11-19T00:21:04.348Z,-3.29
2022-11-19T00:26:09.836Z,-3.28
2022-11-19T00:31:16.427Z,-3.28
2022-11-19T00:36:22.641Z,-3.29
2022-11-19T00:41:28.348Z,-3.30
2022-11-19T00:46:34.180Z,-3.34
2022-11-19T00:51:39.876Z,-3.36
2022-11-19T00:56:45.461Z,-3.25
2022-11-19T01:01:51.105Z,-3.21
2022-11-19T01:06:57.027Z,-3.23
2022-11-19T01:12:02.845Z,-3.29
2022-11-19T01:17:09.541Z,-3.35
2022-11-19T01:22:15.117Z,-3.33
2022-11-19T01:27:20.701Z,-3.35
2022-11-19T01:32:26.419Z,-3.31
2022-11-19T01:37:32.384Z,-3.19
2022-11-19T01:42:50.219Z,-3.13
2022-11-19T01:47:58.656Z,-3.20
2022-11-19T01:53:05.662Z,-3.23
2022-11-19T01:58:15.259Z,-3.27
2022-11-19T02:03:21.123Z,-3.34
2022-11-19T02:08:40.434Z,-3.28
2022-11-19T02:13:54.684Z,-3.19
2022-11-19T02:19:12.089Z,-3.21
2022-11-19T02:24:38.903Z,-3.23
2022-11-19T02:30:03.633Z,-3.23
2022-11-19T02:35:16.413Z,-3.25
2022-11-19T02:40:27.282Z,-3.29
2022-11-19T02:45:37.623Z,-3.28
2022-11-19T02:50:46.789Z,-3.27
2022-11-19T02:56:11.317Z,-3.34
2022-11-19T03:01:40.359Z,-3.31
2022-11-19T03:06:46.601Z,-3.22
2022-11-19T03:11:59.497Z,-3.25
2022-11-19T03:17:10.635Z,-3.28
2022-11-19T03:22:21.960Z,-3.29
2022-11-19T03:27:32.598Z,-3.28
2022-11-19T03:32:39.496Z,-3.28
2022-11-19T03:37:50.689Z,-3.30
2022-11-19T03:42:59.576Z,-3.31
2022-11-19T03:48:07.249Z,-3.36
2022-11-19T03:53:13.186Z,-3.28
2022-11-19T03:58:19.051Z,-3.17
2022-11-19T04:03:24.868Z,-3.11
2022-11-19T04:08:30.674Z,-3.11
2022-11-19T04:13:37.354Z,-3.15
2022-11-19T04:18:43.068Z,-3.18
2022-11-19T04:23:48.997Z,-3.23
2022-11-19T04:28:54.821Z,-3.26
2022-11-19T04:34:00.596Z,-3.29
2022-11-19T04:39:06.704Z,-3.30
2022-11-19T04:44:12.395Z,-3.31
2022-11-19T04:49:18.553Z,-3.32
2022-11-19T04:54:24.455Z,-3.26
2022-11-19T04:59:30.277Z,-3.18
2022-11-19T05:04:35.872Z,-3.15
2022-11-19T05:09:41.605Z,-3.11
2022-11-19T05:14:47.393Z,-3.12
2022-11-19T05:19:53.207Z,-3.14
2022-11-19T05:24:58.800Z,-3.21
2022-11-19T05:30:05.930Z,-3.21
2022-11-19T05:35:12.235Z,-3.16
2022-11-19T05:40:18.505Z,-3.12
2022-11-19T05:45:24.262Z,-3.12
2022-11-19T05:50:29.850Z,-3.14
2022-11-19T05:55:36.472Z,-3.19
2022-11-19T06:00:42.677Z,-3.22
2022-11-19T06:05:48.340Z,-3.26
2022-11-19T06:10:54.319Z,-3.23
2022-11-19T06:16:00.063Z,-3.16
2022-11-19T06:21:10.889Z,-3.15
2022-11-19T06:26:26.278Z,-3.20
2022-11-19T06:31:31.961Z,-3.22
2022-11-19T06:36:42.714Z,-3.20
2022-11-19T06:41:51.139Z,-3.18
2022-11-19T06:46:56.721Z,-3.18
2022-11-19T06:52:02.623Z,-3.19
2022-11-19T06:57:08.276Z,-3.14
2022-11-19T07:02:16.838Z,-3.05
2022-11-19T07:07:25.104Z,-2.98
2022-11-19T07:12:30.895Z,-2.93
2022-11-19T07:17:37.947Z,-2.89
2022-11-19T07:22:43.838Z,-2.88
2022-11-19T07:27:49.572Z,-2.86
2022-11-19T07:32:56.037Z,-2.71
2022-11-19T07:38:01.683Z,-2.60
2022-11-19T07:43:08.507Z,-2.49
2022-11-19T07:48:14.602Z,-2.35
2022-11-19T07:53:20.348Z,-2.32
2022-11-19T07:58:25.949Z,-2.30
2022-11-19T08:03:31.686Z,-2.15
2022-11-19T08:08:37.468Z,-1.98
2022-11-19T08:13:43.839Z,-1.82
2022-11-19T08:18:49.605Z,-1.61
2022-11-19T08:23:56.724Z,-1.36
2022-11-19T08:29:02.850Z,-1.07
2022-11-19T08:34:08.779Z,-0.73
2022-11-19T08:39:14.613Z,-0.47
2022-11-19T08:44:20.903Z,-0.40
2022-11-19T08:49:26.823Z,-0.47
2022-11-19T08:54:32.678Z,-0.62
2022-11-19T08:59:38.305Z,-0.68
2022-11-19T09:04:44.122Z,-0.72
2022-11-19T09:09:49.785Z,-0.81
2022-11-19T09:14:55.482Z,-0.88
2022-11-19T09:20:01.206Z,-0.96
2022-11-19T09:25:09.078Z,-0.86
2022-11-19T09:30:15.829Z,-0.76
2022-11-19T09:35:21.733Z,-0.69
2022-11-19T09:40:27.942Z,-0.68
2022-11-19T09:45:47.632Z,-0.73
2022-11-19T09:51:00.188Z,-0.91
2022-11-19T09:56:07.417Z,-1.00
2022-11-19T10:01:15.356Z,-1.08
2022-11-19T10:06:28.808Z,-1.01
2022-11-19T10:11:47.624Z,-0.95
2022-11-19T10:17:01.918Z,-0.99
2022-11-19T10:22:13.482Z,-1.03
2022-11-19T10:27:29.644Z,-0.75
2022-11-19T10:32:41.283Z,0.09
2022-11-19T10:37:56.299Z,0.86
2022-11-19T10:43:20.701Z,1.40
2022-11-19T10:48:40.891Z,1.53
2022-11-19T10:53:48.089Z,1.53
2022-11-19T10:58:58.069Z,1.28
2022-11-19T11:04:14.138Z,1.07
2022-11-19T11:09:35.084Z,1.00
2022-11-19T11:14:52.689Z,0.80
2022-11-19T11:20:02.211Z,0.61
2022-11-19T11:25:19.620Z,0.38
2022-11-19T11:30:25.534Z,0.18
2022-11-19T11:35:34.323Z,0.04
2022-11-19T11:40:40.164Z,-0.06
2022-11-19T11:45:45.837Z,-0.30
2022-11-19T11:50:51.861Z,-0.46
2022-11-19T11:56:00.633Z,-0.33
2022-11-19T12:01:19.982Z,-0.11
2022-11-19T12:06:31.537Z,0.03
2022-11-19T12:11:54.712Z,-0.11
2022-11-19T12:17:17.694Z,-0.34
2022-11-19T12:22:36.422Z,-0.48
2022-11-19T12:27:53.330Z,-0.59
2022-11-19T12:33:29.215Z,-0.76
2022-11-19T12:38:45.556Z,-0.94
2022-11-19T12:44:02.166Z,-1.11
2022-11-19T12:49:28.854Z,-1.19
2022-11-19T12:54:48.304Z,-1.28
2022-11-19T13:00:09.285Z,-1.40
2022-11-19T13:05:19.848Z,-1.49
2022-11-19T13:10:30.742Z,-1.51
2022-11-19T13:15:41.582Z,-1.51
2022-11-19T13:20:53.796Z,-1.52
2022-11-19T13:26:04.980Z,-1.53
2022-11-19T13:31:18.102Z,-1.55
2022-11-19T13:36:29.861Z,-1.57
2022-11-19T13:42:00.539Z,-1.59
2022-11-19T13:47:13.002Z,-1.63
2022-11-19T13:52:26.324Z,-1.69
2022-11-19T13:57:34.921Z,-1.77
2022-11-19T14:03:17.396Z,-1.88
2022-11-19T14:08:49.703Z,-1.95
2022-11-19T14:14:42.903Z,-2.02
2022-11-19T14:20:12.735Z,-2.09
2022-11-19T14:26:01.810Z,-2.21
2022-11-19T14:31:08.232Z,-2.39
2022-11-19T14:36:17.847Z,-2.59
2022-11-19T14:41:32.479Z,-2.75
2022-11-19T14:46:40.644Z,-2.92
2022-11-19T14:51:54.426Z,-3.10
2022-11-19T14:57:07.708Z,-3.23
2022-11-19T15:02:23.260Z,-3.36
2022-11-19T15:07:40.828Z,-3.51
2022-11-19T15:13:02.011Z,-3.64
2022-11-19T15:18:50.687Z,-3.77
2022-11-19T15:24:05.797Z,-3.89
2022-11-19T15:29:18.777Z,-4.04
2022-11-19T15:34:49.325Z,-4.10
2022-11-19T15:40:03.060Z,-4.02
2022-11-19T15:45:16.404Z,-3.99
2022-11-19T15:50:24.706Z,-4.05
2022-11-19T15:55:32.187Z,-4.16
2022-11-19T16:00:45.962Z,-4.32
2022-11-19T16:06:02.522Z,-4.48
2022-11-19T16:11:27.620Z,-4.66
2022-11-19T16:16:51.708Z,-4.82
2022-11-19T16:22:01.467Z,-4.91
2022-11-19T16:27:13.310Z,-4.96
2022-11-19T16:32:21.933Z,-4.99
2022-11-19T16:37:28.025Z,-4.99
2022-11-19T16:42:34.140Z,-5.02
2022-11-19T16:47:50.281Z,-5.03
2022-11-19T16:52:57.413Z,-5.02
2022-11-19T16:58:13.929Z,-4.93
2022-11-19T17:03:31.897Z,-4.77
2022-11-19T17:08:38.877Z,-4.64
2022-11-19T17:13:44.562Z,-4.58
2022-11-19T17:18:51.644Z,-4.58
2022-11-19T17:23:58.436Z,-4.59
2022-11-19T17:29:10.872Z,-4.59
2022-11-19T17:34:27.924Z,-4.59
2022-11-19T17:39:33.893Z,-4.61
2022-11-19T17:44:40.621Z,-4.63
2022-11-19T17:49:47.400Z,-4.56
2022-11-19T17:54:55.138Z,-4.42
2022-11-19T18:00:00.978Z,-4.33
2022-11-19T18:05:16.741Z,-4.29
2022-11-19T18:10:22.732Z,-4.32
2022-11-19T18:15:28.530Z,-4.35
2022-11-19T18:20:34.464Z,-4.38
2022-11-19T18:25:40.765Z,-4.41
2022-11-19T18:30:46.515Z,-4.42
2022-11-19T18:35:52.054Z,-4.41
2022-11-19T18:40:57.696Z,-4.39
2022-11-19T18:46:03.742Z,-4.29
2022-11-19T18:51:11.786Z,-4.16
2022-11-19T18:56:19.185Z,-4.06
2022-11-19T19:01:24.931Z,-4.00
2022-11-19T19:06:30.850Z,-3.97
2022-11-19T19:11:55.624Z,-3.98
2022-11-19T19:17:02.381Z,-4.03
2022-11-19T19:22:08.772Z,-4.02
2022-11-19T19:27:14.981Z,-3.96
2022-11-19T19:32:20.664Z,-3.91
2022-11-19T19:37:26.460Z,-3.92
2022-11-19T19:42:35.986Z,-3.96
2022-11-19T19:47:44.532Z,-4.05
2022-11-19T19:52:50.448Z,-4.15
2022-11-19T19:57:56.366Z,-4.26
2022-11-19T20:03:02.533Z,-4.35
2022-11-19T20:08:08.385Z,-4.42
2022-11-19T20:13:30.637Z,-4.43
2022-11-19T20:18:37.849Z,-4.45
2022-11-19T20:23:44.151Z,-4.48
2022-11-19T20:28:53.687Z,-4.57
2022-11-19T20:34:01.646Z,-4.71
2022-11-19T20:39:07.698Z,-4.84
2022-11-19T20:44:21.499Z,-4.96
2022-11-19T20:49:29.980Z,-5.10
2022-11-19T20:54:36.505Z,-5.19
2022-11-19T20:59:42.467Z,-5.16
2022-11-19T21:04:48.361Z,-5.11
2022-11-19T21:09:54.216Z,-5.13
2022-11-19T21:15:00.099Z,-5.17
2022-11-19T21:20:07.183Z,-5.22
2022-11-19T21:25:13.540Z,-5.20
2022-11-19T21:30:19.683Z,-5.17
2022-11-19T21:35:26.023Z,-5.14
2022-11-19T21:40:31.913Z,-5.13
2022-11-19T21:45:41.429Z,-5.16
2022-11-19T21:50:47.802Z,-5.19
2022-11-19T21:55:56.912Z,-5.19
2022-11-19T22:01:04.422Z,-5.13
2022-11-19T22:06:11.935Z,-5.09
2022-11-19T22:11:30.196Z,-5.10
2022-11-19T22:16:38.488Z,-5.17
2022-11-19T22:21:44.429Z,-5.26
2022-11-19T22:26:50.333Z,-5.34
2022-11-19T22:31:56.034Z,-5.33
2022-11-19T22:37:02.251Z,-5.27
2022-11-19T22:42:07.995Z,-5.22
2022-11-19T22:47:14.607Z,-5.22
2022-11-19T22:52:20.493Z,-5.24
2022-11-19T22:57:27.862Z,-5.27
2022-11-19T23:02:34.381Z,-5.26
2022-11-19T23:07:40.686Z,-5.24
2022-11-19T23:13:04.965Z,-5.20
2022-11-19T23:18:10.807Z,-5.23
2022-11-19T23:23:16.495Z,-5.26
2022-11-19T23:28:22.315Z,-5.28
2022-11-19T23:33:28.140Z,-5.33
2022-11-19T23:38:34.344Z,-5.33
2022-11-19T23:43:41.128Z,-5.31
2022-11-19T23:48:48.589Z,-5.32
2022-11-19T23:53:54.840Z,-5.39
2022-11-19T23:59:02.259Z,-5.48
